Terminal Aerodrome Forecast
Issued by NWS Sterling, VA

Current Version | Previous Version | Graphics & Text | Print | Product List | Glossary On
Versions: 1 2 3 4 5 6 7 8 9 10 11 12 13 14 15 16 17 18 19 20 21 22 23
000
FTUS41 KLWX 282056 AAA
TAFIAD
TAF AMD
KIAD 282056Z 2821/2924 17009KT P6SM SCT050
     FM290200 16006KT P6SM FEW250
     FM291600 17005KT P6SM -SHRA BKN090
     FM292300 09004KT 6SM -SHRA OVC060=

USA.gov is the U.S. government's official web portal to all federal, state and local government web resources and services.